Time;durP1;ratioP1;P1;durP2;ratioP2;P2;SDS_P1;SDS_P2;PMS_P1;PMS_P2;Temp;Humidity;BMP_temperature;BMP_pressure;BME280_temperature;BME280_humidity;BME280_pressure;Samples;Min_cycle;Max_cycle;Signal;HPM_P1;HPM_P2
2022/03/03 00:02:00;;;;;;;25.13;17.60;;;;;;;1.01;nan;99847.47;4956647;28;20219;-75
2022/03/03 00:04:25;;;;;;;23.73;18.13;;;;;;;1.03;nan;99843.13;4956266;28;20259;-74
2022/03/03 00:06:50;;;;;;;24.97;16.37;;;;;;;1.04;nan;99837.91;4956280;28;20200;-75
2022/03/03 00:09:16;;;;;;;21.60;16.40;;;;;;;1.08;nan;99842.16;4960515;28;20200;-74
2022/03/03 00:11:41;;;;;;;30.13;17.90;;;;;;;1.09;nan;99840.41;4962230;28;20209;-75
2022/03/03 00:14:07;;;;;;;23.53;18.47;;;;;;;1.13;nan;99841.19;4960745;28;20279;-75
2022/03/03 00:16:32;;;;;;;31.00;17.63;;;;;;;1.14;nan;99840.31;4955831;28;20639;-74
2022/03/03 00:18:59;;;;;;;22.33;16.83;;;;;;;1.10;nan;99842.94;4953187;28;20236;-74
2022/03/03 00:21:24;;;;;;;24.75;16.83;;;;;;;0.98;nan;99844.97;4955510;28;20677;-75
2022/03/03 00:23:49;;;;;;;23.93;15.87;;;;;;;0.90;nan;99841.69;4956266;28;20228;-74
2022/03/03 00:26:15;;;;;;;27.37;17.80;;;;;;;0.90;nan;99842.53;4956595;28;20598;-74
2022/03/03 00:28:48;;;;;;;24.60;16.87;;;;;;;0.86;nan;99849.50;4957239;28;20282;-74
2022/03/03 00:31:17;;;;;;;25.02;16.92;;;;;;;0.75;nan;99841.09;4956042;28;20493;-74
2022/03/03 00:33:42;;;;;;;26.37;17.57;;;;;;;0.63;nan;99839.59;4966510;28;20306;-74
2022/03/03 00:36:08;;;;;;;26.17;18.70;;;;;;;0.57;nan;99844.06;4958434;28;20216;-74
2022/03/03 00:38:33;;;;;;;28.50;17.47;;;;;;;0.54;nan;99844.09;4956680;28;20335;-74
2022/03/03 00:40:58;;;;;;;26.10;16.60;;;;;;;0.47;nan;99848.53;4960961;28;20687;-74
2022/03/03 00:43:24;;;;;;;28.07;16.73;;;;;;;0.44;nan;99841.69;4960238;28;20745;-74
2022/03/03 00:45:49;;;;;;;23.47;15.43;;;;;;;0.42;nan;99848.59;4958507;28;20221;-74
2022/03/03 00:48:15;;;;;;;30.97;17.60;;;;;;;0.38;nan;99844.41;4961721;28;20219;-74
2022/03/03 00:50:40;;;;;;;26.30;15.80;;;;;;;0.34;nan;99847.06;4959889;28;20237;-74
2022/03/03 00:53:06;;;;;;;19.77;14.60;;;;;;;0.29;nan;99849.72;4958598;28;20355;-74
2022/03/03 00:55:32;;;;;;;19.77;15.90;;;;;;;0.28;nan;99853.19;4959999;28;20216;-75
2022/03/03 00:57:57;;;;;;;24.13;13.67;;;;;;;0.29;nan;99844.53;4960877;28;20212;-74
2022/03/03 01:00:22;;;;;;;19.43;14.93;;;;;;;0.32;nan;99844.47;4964571;28;20228;-74
2022/03/03 01:02:49;;;;;;;30.58;21.77;;;;;;;0.40;nan;99841.75;4961402;28;20481;-74
2022/03/03 01:05:15;;;;;;;23.27;18.10;;;;;;;0.43;nan;99845.16;4959144;28;20776;-75
2022/03/03 01:07:41;;;;;;;21.58;17.35;;;;;;;0.47;nan;99845.09;4961537;28;20582;-74
2022/03/03 01:10:08;;;;;;;23.43;16.50;;;;;;;0.51;nan;99846.72;4960789;28;20213;-74
2022/03/03 01:12:34;;;;;;;22.13;14.70;;;;;;;0.52;nan;99843.28;4963713;28;20235;-74
2022/03/03 01:15:00;;;;;;;23.77;16.55;;;;;;;0.52;nan;99833.78;4963446;28;20220;-75
2022/03/03 01:17:26;;;;;;;20.13;15.27;;;;;;;0.54;nan;99829.47;4961639;28;20204;-75
2022/03/03 01:19:51;;;;;;;24.27;15.53;;;;;;;0.58;nan;99832.81;4961266;28;20208;-75
2022/03/03 01:22:17;;;;;;;20.07;15.93;;;;;;;0.60;nan;99833.66;4966536;28;20236;-75
2022/03/03 01:24:45;;;;;;;21.87;14.10;;;;;;;0.59;nan;99832.78;4964686;28;20208;-74
2022/03/03 01:27:11;;;;;;;21.83;13.25;;;;;;;0.54;nan;99834.63;4962607;28;20489;-74
2022/03/03 01:29:37;;;;;;;21.08;15.27;;;;;;;0.49;nan;99836.44;4961578;28;20741;-74
2022/03/03 01:32:04;;;;;;;20.83;14.80;;;;;;;0.46;nan;99830.47;4959321;28;20208;-74
2022/03/03 01:34:29;;;;;;;24.33;14.45;;;;;;;0.44;nan;99827.91;4962032;28;20876;-74
2022/03/03 01:36:55;;;;;;;22.50;14.73;;;;;;;0.36;nan;99829.78;4961626;28;20231;-74
2022/03/03 01:39:20;;;;;;;22.07;14.87;;;;;;;0.31;nan;99826.44;4966260;28;20759;-74
2022/03/03 01:41:46;;;;;;;20.87;14.30;;;;;;;0.29;nan;99826.47;4965143;28;20205;-74
2022/03/03 01:44:11;;;;;;;22.90;13.80;;;;;;;0.18;nan;99825.81;4966122;28;20237;-74
2022/03/03 01:46:51;;;;;;;23.47;14.23;;;;;;;0.06;nan;99826.88;4960795;28;20672;-74
2022/03/03 01:49:17;;;;;;;22.35;15.80;;;;;;;0.05;nan;99834.63;4959014;28;20208;-74
2022/03/03 01:51:43;;;;;;;21.38;14.48;;;;;;;-0.03;nan;99824.44;4959666;28;20677;-75
2022/03/03 01:54:08;;;;;;;21.10;14.80;;;;;;;-0.13;nan;99828.06;4959221;28;20233;-74
2022/03/03 01:56:34;;;;;;;22.17;15.10;;;;;;;-0.22;nan;99826.47;4957008;28;20231;-74
2022/03/03 01:59:00;;;;;;;22.05;15.60;;;;;;;-0.28;nan;99822.25;4957855;28;20196;-74
2022/03/03 02:01:26;;;;;;;25.23;17.40;;;;;;;-0.29;nan;99811.97;4956788;28;20528;-74
2022/03/03 02:03:52;;;;;;;24.85;15.82;;;;;;;-0.31;nan;99816.31;4960272;28;20220;-74
2022/03/03 02:06:17;;;;;;;22.00;14.43;;;;;;;-0.37;nan;99806.09;4960199;28;20205;-74
2022/03/03 02:08:43;;;;;;;19.50;14.30;;;;;;;-0.42;nan;99806.16;4960331;28;20209;-75
2022/03/03 02:11:08;;;;;;;24.70;15.10;;;;;;;-0.44;nan;99802.75;4959738;28;20209;-75
2022/03/03 02:13:36;;;;;;;22.53;15.07;;;;;;;-0.45;nan;99798.47;4959924;28;20261;-74
2022/03/03 02:16:02;;;;;;;24.42;15.00;;;;;;;-0.47;nan;99797.63;4959899;28;20903;-74
2022/03/03 02:18:27;;;;;;;21.80;14.90;;;;;;;-0.51;nan;99794.25;4958538;28;20348;-74
2022/03/03 02:20:53;;;;;;;23.90;15.60;;;;;;;-0.53;nan;99796.00;4956307;28;20287;-74
2022/03/03 02:23:18;;;;;;;22.87;16.00;;;;;;;-0.56;nan;99797.78;4961056;28;20225;-74
2022/03/03 02:25:44;;;;;;;24.10;15.50;;;;;;;-0.55;nan;99786.56;4982669;28;20208;-74
2022/03/03 02:28:10;;;;;;;25.53;15.80;;;;;;;-0.50;nan;99782.19;4962527;28;20220;-74
2022/03/03 02:30:35;;;;;;;17.87;13.57;;;;;;;-0.42;nan;99774.34;4959473;28;20468;-74
2022/03/03 02:33:01;;;;;;;20.93;15.70;;;;;;;-0.35;nan;99783.66;4967315;28;20328;-73
2022/03/03 02:35:27;;;;;;;27.43;14.77;;;;;;;-0.31;nan;99777.59;4964493;28;20215;-74
2022/03/03 02:37:53;;;;;;;25.90;16.42;;;;;;;-0.26;nan;99783.53;4963659;28;20303;-74
2022/03/03 02:40:22;;;;;;;21.23;14.90;;;;;;;-0.21;nan;99780.88;4957937;28;20685;-74
2022/03/03 02:42:55;;;;;;;20.52;14.27;;;;;;;-0.20;nan;99780.84;4957270;28;20244;-74
2022/03/03 02:45:22;;;;;;;23.13;14.57;;;;;;;-0.26;nan;99781.81;4955932;28;20221;-74
2022/03/03 02:47:49;;;;;;;21.48;13.77;;;;;;;-0.45;nan;99785.56;4955367;28;20232;-74
2022/03/03 02:50:17;;;;;;;20.00;13.65;;;;;;;-0.59;nan;99787.50;4955315;28;20239;-74
2022/03/03 02:52:43;;;;;;;29.55;16.70;;;;;;;-0.72;nan;99779.94;4954379;28;20232;-74
2022/03/03 02:55:09;;;;;;;24.50;16.37;;;;;;;-0.83;nan;99779.25;4956109;28;20306;-74
2022/03/03 02:57:53;;;;;;;22.35;14.82;;;;;;;-0.93;nan;99777.69;4955008;28;20201;-74
2022/03/03 03:00:24;;;;;;;25.30;18.00;;;;;;;-0.94;nan;99776.84;4955966;28;20496;-74
2022/03/03 03:02:50;;;;;;;29.17;20.55;;;;;;;-0.90;nan;99777.63;4955879;28;21291;-74
2022/03/03 03:05:15;;;;;;;23.07;15.40;;;;;;;-0.95;nan;99776.84;4954517;28;20775;-74
2022/03/03 03:07:41;;;;;;;20.23;14.60;;;;;;;-0.97;nan;99773.47;4953467;28;20212;-74
2022/03/03 03:10:07;;;;;;;25.13;17.63;;;;;;;-0.97;nan;99773.47;4951821;28;20599;-74
2022/03/03 03:12:33;;;;;;;20.98;14.63;;;;;;;-1.03;nan;99766.63;4953784;28;20228;-74
2022/03/03 03:14:58;;;;;;;21.65;14.15;;;;;;;-1.06;nan;99761.53;4956194;28;20684;-74
2022/03/03 03:17:24;;;;;;;22.63;14.07;;;;;;;-1.03;nan;99768.38;4955067;28;20315;-74
2022/03/03 03:19:49;;;;;;;22.57;15.40;;;;;;;-1.04;nan;99764.94;4954590;28;20573;-74
2022/03/03 03:22:15;;;;;;;18.60;13.47;;;;;;;-1.06;nan;99760.69;4953673;28;20236;-75
2022/03/03 03:24:40;;;;;;;22.10;13.13;;;;;;;-1.13;nan;99763.34;4955302;28;20239;-74
2022/03/03 03:27:06;;;;;;;20.77;12.60;;;;;;;-1.19;nan;99753.13;4953120;28;20208;-74
2022/03/03 03:29:32;;;;;;;22.23;14.30;;;;;;;-1.23;nan;99756.59;4955136;28;20204;-74
2022/03/03 03:31:57;;;;;;;19.57;14.53;;;;;;;-1.25;nan;99753.19;4953717;28;20203;-74
2022/03/03 03:34:23;;;;;;;23.60;15.30;;;;;;;-1.24;nan;99754.03;4954052;28;20476;-74
2022/03/03 03:36:48;;;;;;;22.93;13.30;;;;;;;-1.21;nan;99749.72;4951749;28;20795;-74
2022/03/03 03:39:14;;;;;;;20.37;13.90;;;;;;;-1.18;nan;99747.09;4954578;28;20216;-74
2022/03/03 03:41:39;;;;;;;22.37;12.40;;;;;;;-1.18;nan;99749.66;4955174;28;20671;-74
2022/03/03 03:44:05;;;;;;;17.80;13.53;;;;;;;-1.15;nan;99748.78;4952343;28;20323;-74
2022/03/03 03:46:30;;;;;;;25.17;16.90;;;;;;;-1.08;nan;99752.09;4955315;28;20685;-74
2022/03/03 03:48:56;;;;;;;21.13;13.50;;;;;;;-1.01;nan;99761.47;4954300;28;20208;-74
2022/03/03 03:51:21;;;;;;;15.93;12.30;;;;;;;-0.98;nan;99754.53;4954490;28;20258;-74
2022/03/03 03:53:47;;;;;;;18.70;13.83;;;;;;;-0.99;nan;99760.56;4960822;28;20264;-74
2022/03/03 03:56:12;;;;;;;20.57;13.80;;;;;;;-0.99;nan;99759.72;4952561;28;20279;-74
2022/03/03 03:58:38;;;;;;;19.53;12.93;;;;;;;-1.05;nan;99765.81;4953703;28;20235;-74
2022/03/03 04:01:03;;;;;;;23.80;14.80;;;;;;;-1.14;nan;99759.03;4957585;28;20224;-74
2022/03/03 04:03:29;;;;;;;16.43;13.37;;;;;;;-1.23;nan;99756.59;4956881;28;20216;-74
2022/03/03 04:05:54;;;;;;;16.37;13.57;;;;;;;-1.32;nan;99759.31;4956157;28;20628;-74
2022/03/03 04:08:19;;;;;;;25.13;13.13;;;;;;;-1.40;nan;99758.56;4956783;28;20201;-74
2022/03/03 04:10:46;;;;;;;21.87;14.77;;;;;;;-1.45;nan;99765.50;4957293;28;21339;-74
2022/03/03 04:13:11;;;;;;;22.98;14.23;;;;;;;-1.49;nan;99759.50;4956560;28;20233;-74
2022/03/03 04:15:37;;;;;;;27.23;15.07;;;;;;;-1.51;nan;99755.25;4953648;28;20216;-74
2022/03/03 04:18:02;;;;;;;27.77;16.23;;;;;;;-1.49;nan;99753.50;4956945;28;20607;-74
2022/03/03 04:20:28;;;;;;;21.57;15.80;;;;;;;-1.45;nan;99756.03;4957172;28;20212;-74
2022/03/03 04:22:53;;;;;;;20.97;15.83;;;;;;;-1.41;nan;99756.84;4956739;28;20243;-74
2022/03/03 04:25:19;;;;;;;21.57;15.27;;;;;;;-1.40;nan;99756.84;4953731;28;20216;-74
2022/03/03 04:27:45;;;;;;;18.80;14.70;;;;;;;-1.37;nan;99748.22;4953905;28;20205;-74
2022/03/03 04:30:11;;;;;;;22.67;15.40;;;;;;;-1.33;nan;99749.88;4954968;28;20460;-73
2022/03/03 04:32:37;;;;;;;25.92;18.60;;;;;;;-1.27;nan;99754.06;4956629;28;20837;-74
2022/03/03 04:35:04;;;;;;;24.98;16.70;;;;;;;-1.23;nan;99740.28;4945481;28;20319;-74
2022/03/03 04:37:29;;;;;;;22.48;13.93;;;;;;;-1.21;nan;99743.72;4947111;28;20318;-74
2022/03/03 04:39:54;;;;;;;25.37;16.17;;;;;;;-1.21;nan;99739.41;4947180;28;20879;-74
2022/03/03 04:42:20;;;;;;;17.10;14.40;;;;;;;-1.20;nan;99735.09;4946565;28;20276;-73
2022/03/03 04:44:45;;;;;;;23.17;15.47;;;;;;;-1.19;nan;99737.66;4953500;23;1098571;-74
2022/03/03 04:47:11;;;;;;;19.93;14.13;;;;;;;-1.21;nan;99739.41;4958125;28;20539;-74
2022/03/03 04:49:36;;;;;;;24.90;14.20;;;;;;;-1.22;nan;99739.41;4973534;28;20677;-73
2022/03/03 04:52:02;;;;;;;20.30;14.33;;;;;;;-1.23;nan;99735.13;4975999;28;20295;-74
2022/03/03 04:54:27;;;;;;;19.50;14.47;;;;;;;-1.22;nan;99732.53;4975052;28;20727;-73
2022/03/03 04:56:54;;;;;;;19.27;15.00;;;;;;;-1.19;nan;99729.94;4974971;28;20718;-73
2022/03/03 04:59:20;;;;;;;23.27;14.43;;;;;;;-1.16;nan;99737.63;4976059;28;20219;-73
2022/03/03 05:01:45;;;;;;;25.17;17.40;;;;;;;-1.15;nan;99731.56;4976787;28;20481;-74
2022/03/03 05:04:11;;;;;;;24.80;15.13;;;;;;;-1.15;nan;99738.47;4975504;28;20826;-74
2022/03/03 05:06:36;;;;;;;21.70;14.27;;;;;;;-1.14;nan;99747.88;4957718;28;20196;-74
2022/03/03 05:09:02;;;;;;;19.37;11.53;;;;;;;-1.20;nan;99741.09;4976418;28;20663;-74
2022/03/03 05:11:28;;;;;;;22.15;13.10;;;;;;;-1.29;nan;99738.66;4975810;28;20211;-74
2022/03/03 05:13:53;;;;;;;20.30;14.83;;;;;;;-1.36;nan;99737.88;4959640;28;20228;-74
2022/03/03 05:16:19;;;;;;;22.50;14.00;;;;;;;-1.36;nan;99742.19;4976709;28;20787;-74
2022/03/03 05:18:44;;;;;;;21.30;12.93;;;;;;;-1.35;nan;99737.00;4975977;28;20230;-74
2022/03/03 05:21:10;;;;;;;26.23;12.63;;;;;;;-1.34;nan;99728.41;4976104;28;20216;-74
2022/03/03 05:23:36;;;;;;;30.63;15.38;;;;;;;-1.32;nan;99728.41;4976506;28;20437;-75
2022/03/03 05:26:02;;;;;;;20.33;14.03;;;;;;;-1.30;nan;99731.78;4970087;28;20291;-74
2022/03/03 05:28:27;;;;;;;24.43;11.50;;;;;;;-1.30;nan;99721.47;4973297;28;20353;-75
2022/03/03 05:30:52;;;;;;;19.80;13.97;;;;;;;-1.33;nan;99721.50;4975891;28;20283;-75
2022/03/03 05:33:18;;;;;;;19.00;13.20;;;;;;;-1.32;nan;99715.50;4956275;28;20330;-74
2022/03/03 05:35:46;;;;;;;19.00;13.53;;;;;;;-1.30;nan;99713.75;4974986;28;20220;-74
2022/03/03 05:38:11;;;;;;;23.92;13.98;;;;;;;-1.30;nan;99711.16;4970298;28;20820;-75
2022/03/03 05:40:37;;;;;;;21.47;13.70;;;;;;;-1.28;nan;99717.16;4974409;28;20225;-75
2022/03/03 05:43:02;;;;;;;19.20;11.80;;;;;;;-1.28;nan;99716.31;4970281;28;20258;-75
2022/03/03 05:45:28;;;;;;;15.93;12.43;;;;;;;-1.30;nan;99712.91;4974475;28;20208;-75
2022/03/03 05:47:54;;;;;;;19.80;13.20;;;;;;;-1.35;nan;99710.38;4971727;28;20668;-75
2022/03/03 05:50:20;;;;;;;20.43;13.37;;;;;;;-1.43;nan;99714.78;4971263;28;20223;-75
2022/03/03 05:52:46;;;;;;;16.95;12.48;;;;;;;-1.54;nan;99712.34;4974145;28;20399;-74
2022/03/03 05:55:12;;;;;;;20.60;13.03;;;;;;;-1.63;nan;99720.19;4973165;28;20196;-74
2022/03/03 05:57:42;;;;;;;14.13;10.70;;;;;;;-1.74;nan;99720.31;4971343;28;20205;-75
2022/03/03 06:00:12;;;;;;;21.75;15.23;;;;;;;-1.80;nan;99718.66;4973239;28;20876;-74
2022/03/03 06:02:50;;;;;;;22.20;18.13;;;;;;;-1.82;nan;99717.84;4973906;28;20518;-75
2022/03/03 06:05:23;;;;;;;23.48;14.95;;;;;;;-1.88;nan;99717.06;4974471;28;20207;-75
2022/03/03 06:07:59;;;;;;;17.75;12.10;;;;;;;-1.94;nan;99712.84;4970292;28;20250;-75
2022/03/03 06:10:25;;;;;;;22.08;12.80;;;;;;;-1.97;nan;99714.56;4972923;28;20218;-75
2022/03/03 06:13:03;;;;;;;18.95;11.90;;;;;;;-2.02;nan;99718.06;4972049;28;20227;-75
2022/03/03 06:15:29;;;;;;;29.27;15.27;;;;;;;-2.05;nan;99709.53;4973296;28;20549;-75
2022/03/03 06:17:56;;;;;;;20.17;13.80;;;;;;;-2.02;nan;99720.63;4973594;28;20241;-75
2022/03/03 06:20:23;;;;;;;20.35;12.73;;;;;;;-1.97;nan;99718.03;4970595;28;20266;-75
2022/03/03 06:22:48;;;;;;;23.90;15.65;;;;;;;-1.92;nan;99717.94;4970750;28;20212;-75
2022/03/03 06:25:14;;;;;;;22.63;15.70;;;;;;;-1.86;nan;99717.91;4975588;28;20223;-75
2022/03/03 06:27:40;;;;;;;23.90;14.60;;;;;;;-1.80;nan;99716.09;4973218;28;20358;-75
2022/03/03 06:30:06;;;;;;;31.80;16.30;;;;;;;-1.71;nan;99719.44;4971262;28;20833;-75
2022/03/03 06:32:31;;;;;;;31.25;20.58;;;;;;;-1.61;nan;99714.16;4973627;28;20803;-75
2022/03/03 06:34:57;;;;;;;23.33;15.60;;;;;;;-1.54;nan;99720.06;4974695;28;20722;-75
2022/03/03 06:37:22;;;;;;;22.73;14.03;;;;;;;-1.49;nan;99726.00;4973652;28;20261;-75
2022/03/03 06:39:48;;;;;;;20.47;12.93;;;;;;;-1.44;nan;99713.09;4972393;28;20298;-74
2022/03/03 06:42:13;;;;;;;21.47;13.90;;;;;;;-1.41;nan;99706.16;4974080;28;20266;-74
2022/03/03 06:44:38;;;;;;;22.43;14.90;;;;;;;-1.37;nan;99712.13;4972199;28;20441;-74
2022/03/03 06:47:04;;;;;;;22.47;15.77;;;;;;;-1.37;nan;99710.41;4973838;28;20259;-74
2022/03/03 06:49:29;;;;;;;26.63;17.03;;;;;;;-1.37;nan;99707.84;4972577;28;20557;-74
2022/03/03 06:51:57;;;;;;;22.33;14.37;;;;;;;-1.37;nan;99700.09;4974110;28;20216;-74
2022/03/03 06:54:23;;;;;;;18.80;13.57;;;;;;;-1.36;nan;99709.53;4973089;28;20310;-74
2022/03/03 06:56:52;;;;;;;21.50;13.88;;;;;;;-1.36;nan;99700.94;4973280;28;20561;-74
2022/03/03 06:59:27;;;;;;;26.02;14.00;;;;;;;-1.36;nan;99695.78;4973461;28;20211;-74
2022/03/03 07:01:54;;;;;;;25.10;15.63;;;;;;;-1.30;nan;99703.44;4972834;28;20484;-74
2022/03/03 07:04:21;;;;;;;19.45;12.65;;;;;;;-1.28;nan;99703.44;4974066;28;20347;-74
2022/03/03 07:06:48;;;;;;;26.23;15.27;;;;;;;-1.23;nan;99696.47;4975597;28;20204;-74
2022/03/03 07:09:13;;;;;;;19.70;13.35;;;;;;;-1.16;nan;99695.50;4972997;28;20211;-74
2022/03/03 07:11:41;;;;;;;24.60;14.30;;;;;;;-1.08;nan;99687.66;4974570;28;20221;-74
2022/03/03 07:14:07;;;;;;;17.92;13.70;;;;;;;-0.99;nan;99690.13;4973468;28;20235;-74
2022/03/03 07:16:43;;;;;;;17.50;13.40;;;;;;;-0.90;nan;99690.81;4974030;28;20211;-74
2022/03/03 07:19:25;;;;;;;18.10;12.77;;;;;;;-0.80;nan;99688.94;4973055;28;20450;-74
2022/03/03 07:22:03;;;;;;;21.20;14.20;;;;;;;-0.70;nan;99689.66;4972693;28;20568;-75
2022/03/03 07:24:32;;;;;;;18.42;12.73;;;;;;;-0.63;nan;99686.09;4973268;28;20227;-75
2022/03/03 07:27:11;;;;;;;16.05;11.23;;;;;;;-0.56;nan;99692.84;4966367;28;20199;-75
2022/03/03 07:29:37;;;;;;;19.50;13.15;;;;;;;-0.49;nan;99685.84;4955384;28;20504;-75
2022/03/03 07:32:07;;;;;;;22.70;14.80;;;;;;;-0.39;nan;99689.13;4970438;28;20606;-75
2022/03/03 07:34:36;;;;;;;17.45;11.80;;;;;;;-0.32;nan;99683.84;4973887;28;20286;-75
2022/03/03 07:37:11;;;;;;;15.52;11.55;;;;;;;-0.24;nan;99681.97;4976527;28;20204;-75
2022/03/03 07:39:42;;;;;;;19.70;12.95;;;;;;;-0.15;nan;99680.09;4978015;28;20208;-75
2022/03/03 07:42:12;;;;;;;14.32;8.88;;;;;;;-0.06;nan;99678.16;4975869;28;20961;-75
2022/03/03 07:44:38;;;;;;;12.88;11.50;;;;;;;0.02;nan;99670.28;4975709;28;20720;-75
2022/03/03 07:47:06;;;;;;;16.07;10.07;;;;;;;0.13;nan;99675.22;4969465;28;20405;-75
2022/03/03 07:49:31;;;;;;;17.08;10.60;;;;;;;0.22;nan;99673.31;4966066;28;20451;-75
2022/03/03 07:51:58;;;;;;;12.43;9.00;;;;;;;0.32;nan;99673.97;4971718;28;20613;-75
2022/03/03 07:54:23;;;;;;;22.13;13.43;;;;;;;0.43;nan;99672.03;4971156;28;20322;-75
2022/03/03 07:56:55;;;;;;;14.87;10.47;;;;;;;0.54;nan;99674.38;4971430;28;20735;-75
2022/03/03 07:59:24;;;;;;;15.98;10.32;;;;;;;0.60;nan;99674.25;4970434;28;20220;-76
2022/03/03 08:01:50;;;;;;;16.97;12.57;;;;;;;0.70;nan;99674.03;4967744;28;20937;-75
2022/03/03 08:04:16;;;;;;;18.97;10.93;;;;;;;0.75;nan;99670.44;4970410;28;20563;-75
2022/03/03 08:06:44;;;;;;;14.50;9.57;;;;;;;0.85;nan;99664.19;4969989;28;20799;-75
2022/03/03 08:09:10;;;;;;;17.05;10.63;;;;;;;0.96;nan;99668.25;4969117;28;20410;-76
2022/03/03 08:11:40;;;;;;;15.50;10.13;;;;;;;1.08;nan;99665.38;4970852;28;20249;-74
2022/03/03 08:14:06;;;;;;;15.18;10.02;;;;;;;1.18;nan;99660.84;4971135;28;20231;-76
2022/03/03 08:16:35;;;;;;;13.43;9.65;;;;;;;1.28;nan;99655.41;4969030;28;20223;-76
2022/03/03 08:19:02;;;;;;;18.23;11.75;;;;;;;1.41;nan;99652.50;4967662;28;20705;-76
2022/03/03 08:21:30;;;;;;;15.07;10.40;;;;;;;1.53;nan;99653.03;4967180;28;20473;-75
2022/03/03 08:24:02;;;;;;;18.98;10.52;;;;;;;1.68;nan;99658.72;4968384;28;20339;-75
2022/03/03 08:26:29;;;;;;;14.20;9.45;;;;;;;1.81;nan;99661.81;4967707;28;20696;-75
2022/03/03 08:28:55;;;;;;;18.38;10.25;;;;;;;2.18;nan;99654.69;4950269;28;20231;-75
2022/03/03 08:31:34;;;;;;;19.37;12.30;;;;;;;3.09;nan;99647.63;4968914;28;20212;-76
2022/03/03 08:34:06;;;;;;;17.95;10.85;;;;;;;4.31;nan;99643.41;4967017;28;20522;-76
2022/03/03 08:36:45;;;;;;;14.38;10.90;;;;;;;5.48;nan;99637.88;4969022;28;20226;-75
2022/03/03 08:39:16;;;;;;;14.90;10.23;;;;;;;6.41;nan;99637.28;4967127;28;20587;-76
2022/03/03 08:41:43;;;;;;;19.27;10.65;;;;;;;7.20;nan;99624.78;4970129;28;20208;-76
2022/03/03 08:44:10;;;;;;;14.25;10.45;;;;;;;7.76;nan;99621.06;4970979;28;20267;-75
2022/03/03 08:46:39;;;;;;;14.98;11.10;;;;;;;8.15;nan;99626.91;4968900;28;20302;-75
2022/03/03 08:49:07;;;;;;;14.82;12.05;;;;;;;8.19;nan;99621.44;4971287;28;20527;-76
2022/03/03 08:51:33;;;;;;;14.82;11.07;;;;;;;8.22;nan;99624.81;4970338;28;20212;-75
2022/03/03 08:53:59;;;;;;;20.03;11.47;;;;;;;7.92;nan;99612.44;4970355;28;20281;-75
2022/03/03 08:56:25;;;;;;;14.17;11.67;;;;;;;7.87;nan;99617.06;4974408;28;20474;-75
2022/03/03 08:58:52;;;;;;;13.53;10.40;;;;;;;8.50;nan;99609.31;4971497;28;20220;-76
2022/03/03 09:01:18;;;;;;;16.88;13.73;;;;;;;9.25;nan;99599.00;4968912;28;20476;-75
2022/03/03 09:03:43;;;;;;;16.00;11.60;;;;;;;9.79;nan;99599.25;4969949;28;20229;-75
2022/03/03 09:06:13;;;;;;;14.33;11.57;;;;;;;10.16;nan;99595.22;4970539;28;20212;-75
2022/03/03 09:08:39;;;;;;;15.75;11.40;;;;;;;10.35;nan;99591.50;4969700;28;20211;-76
2022/03/03 09:11:04;;;;;;;17.87;12.23;;;;;;;10.67;nan;99584.19;4971131;28;20576;-75
2022/03/03 09:13:30;;;;;;;15.13;13.63;;;;;;;10.90;nan;99595.81;4969214;28;20498;-75
2022/03/03 09:15:55;;;;;;;19.07;14.00;;;;;;;11.28;nan;99584.56;4971794;28;20219;-75
2022/03/03 09:18:21;;;;;;;20.00;13.60;;;;;;;11.59;nan;99586.00;4970902;28;20219;-75
2022/03/03 09:20:47;;;;;;;25.13;14.50;;;;;;;11.79;nan;99587.25;4968496;28;20692;-76
2022/03/03 09:23:12;;;;;;;17.27;14.20;;;;;;;11.87;nan;99576.22;4969052;28;20247;-75
2022/03/03 09:25:39;;;;;;;16.90;14.33;;;;;;;11.88;nan;99570.00;4969348;28;20224;-76
2022/03/03 09:28:06;;;;;;;19.23;17.13;;;;;;;11.85;nan;99575.44;4967218;28;20768;-75
2022/03/03 09:30:31;;;;;;;16.13;13.00;;;;;;;11.54;nan;99580.19;4967683;28;20361;-76
2022/03/03 09:32:57;;;;;;;20.30;18.10;;;;;;;11.99;nan;99572.75;4966362;28;20499;-75
2022/03/03 09:35:23;;;;;;;19.33;14.50;;;;;;;11.85;nan;99578.06;4971352;28;20208;-75
2022/03/03 09:37:48;;;;;;;16.57;13.57;;;;;;;11.77;nan;99586.50;4949709;28;20247;-75
2022/03/03 09:40:14;;;;;;;18.07;14.00;;;;;;;11.84;nan;99571.13;4969487;28;20211;-75
2022/03/03 09:42:40;;;;;;;18.30;14.20;;;;;;;11.71;nan;99579.88;4969288;28;20203;-75
2022/03/03 09:45:08;;;;;;;21.90;13.60;;;;;;;11.56;nan;99578.31;4969837;28;20235;-76
2022/03/03 09:47:35;;;;;;;19.80;14.30;;;;;;;11.18;nan;99567.72;4967183;28;20208;-76
2022/03/03 09:50:01;;;;;;;19.35;15.35;;;;;;;10.77;nan;99564.25;4969569;28;20206;-76
2022/03/03 09:52:28;;;;;;;20.30;14.70;;;;;;;10.34;nan;99561.78;4966196;28;20207;-75
2022/03/03 09:54:55;;;;;;;24.35;18.42;;;;;;;10.00;nan;99563.00;4970751;28;20989;-76
2022/03/03 09:57:21;;;;;;;24.30;17.85;;;;;;;9.73;nan;99561.13;4947937;28;20267;-77
2022/03/03 09:59:48;;;;;;;20.95;16.50;;;;;;;9.43;nan;99563.00;4967451;28;20585;-74
2022/03/03 10:02:13;;;;;;;24.88;21.23;;;;;;;9.21;nan;99561.66;4967268;28;21122;-75
2022/03/03 10:04:40;;;;;;;36.80;22.33;;;;;;;9.04;nan;99557.38;4969391;28;20510;-75
2022/03/03 10:07:08;;;;;;;23.70;19.00;;;;;;;8.77;nan;99558.97;4970013;28;20503;-75
2022/03/03 10:09:59;;;;;;;32.67;21.63;;;;;;;8.48;nan;99568.44;4965820;28;20533;-75
2022/03/03 10:12:26;;;;;;;26.45;21.17;;;;;;;8.48;nan;99564.09;4967097;28;20211;-75
2022/03/03 10:14:57;;;;;;;28.48;21.00;;;;;;;8.42;nan;99556.53;4950896;28;20223;-76
2022/03/03 10:17:34;;;;;;;30.20;20.60;;;;;;;8.32;nan;99552.75;4966333;28;20342;-76
2022/03/03 10:20:02;;;;;;;26.92;21.30;;;;;;;8.34;nan;99543.84;4969551;28;20207;-74
2022/03/03 10:22:57;;;;;;;28.70;21.00;;;;;;;8.30;nan;99549.34;4967273;28;20673;-75
2022/03/03 10:25:44;;;;;;;24.25;18.25;;;;;;;8.23;nan;99542.75;4952276;28;20221;-75
2022/03/03 10:28:19;;;;;;;28.15;19.67;;;;;;;8.26;nan;99547.81;4967132;28;20204;-75
2022/03/03 10:31:18;;;;;;;25.40;19.30;;;;;;;8.28;nan;99536.34;4951039;28;20609;-75
2022/03/03 10:33:49;;;;;;;26.38;18.77;;;;;;;8.30;nan;99541.50;4966871;28;20219;-75
2022/03/03 10:36:23;;;;;;;27.67;20.80;;;;;;;8.35;nan;99531.63;4949371;28;20262;-75
2022/03/03 10:38:57;;;;;;;28.70;20.35;;;;;;;8.51;nan;99532.50;4959106;28;20216;-75
2022/03/03 10:41:26;;;;;;;23.88;20.80;;;;;;;8.69;nan;99527.97;4968947;28;20210;-75
2022/03/03 10:43:51;;;;;;;34.97;22.02;;;;;;;8.67;nan;99536.84;5004725;23;20236;-75
2022/03/03 10:46:16;;;;;;;27.77;19.60;;;;;;;8.70;nan;99528.84;4952349;28;20227;-74
2022/03/03 10:48:42;;;;;;;26.10;19.90;;;;;;;8.77;nan;99527.53;4958782;28;20294;-74
2022/03/03 10:51:07;;;;;;;29.63;21.30;;;;;;;8.77;nan;99527.53;4968344;28;20203;-74
2022/03/03 10:53:33;;;;;;;29.33;21.27;;;;;;;8.64;nan;99522.16;4968911;28;20232;-75
2022/03/03 10:56:06;;;;;;;26.53;20.53;;;;;;;8.61;nan;99528.44;4969495;28;20204;-74
2022/03/03 10:59:00;;;;;;;32.53;23.38;;;;;;;8.56;nan;99525.22;4968045;28;20510;-75
2022/03/03 11:01:28;;;;;;;28.20;21.05;;;;;;;8.63;nan;99521.31;4968496;28;20361;-76
2022/03/03 11:03:53;;;;;;;24.05;19.02;;;;;;;8.65;nan;99516.00;4967740;28;20704;-74
2022/03/03 11:06:24;;;;;;;31.03;21.77;;;;;;;8.62;nan;99519.63;4968231;28;20500;-74
2022/03/03 11:08:52;;;;;;;29.70;21.90;;;;;;;8.68;nan;99523.69;4969770;28;20295;-74
2022/03/03 11:11:19;;;;;;;24.85;20.33;;;;;;;8.78;nan;99521.38;4968343;28;20250;-75
2022/03/03 11:13:49;;;;;;;24.85;21.65;;;;;;;8.82;nan;99513.25;4967631;28;20621;-75
2022/03/03 11:16:18;;;;;;;37.30;24.17;;;;;;;8.93;nan;99510.00;4969901;28;20210;-76
2022/03/03 11:18:44;;;;;;;31.10;22.00;;;;;;;9.00;nan;99513.13;4969145;28;20333;-74
2022/03/03 11:21:10;;;;;;;25.20;20.23;;;;;;;9.09;nan;99504.69;4967623;28;20200;-74
2022/03/03 11:23:41;;;;;;;31.08;23.05;;;;;;;9.16;nan;99500.78;4968562;28;20197;-74
2022/03/03 11:26:08;;;;;;;31.67;20.58;;;;;;;9.19;nan;99502.38;4957217;28;20376;-75
2022/03/03 11:28:35;;;;;;;29.13;21.58;;;;;;;9.30;nan;99499.97;4969085;28;20211;-75
2022/03/03 11:31:22;;;;;;;26.65;21.75;;;;;;;9.41;nan;99487.03;4966213;28;20191;-74
2022/03/03 11:33:47;;;;;;;24.50;20.48;;;;;;;9.45;nan;99488.56;4965282;28;20232;-75
2022/03/03 11:36:20;;;;;;;29.20;20.83;;;;;;;9.50;nan;99477.78;4968384;28;20215;-74
2022/03/03 11:38:54;;;;;;;28.23;21.30;;;;;;;9.57;nan;99476.47;4967886;28;20435;-75